createdAt,value
2022-12-01T00:01:03.485Z,12.68
2022-12-01T00:05:15.843Z,15.20
2022-12-01T00:09:46.645Z,13.98
2022-12-01T00:13:59.377Z,13.40
2022-12-01T00:18:11.659Z,14.00
2022-12-01T00:22:24.083Z,14.40
2022-12-01T00:26:38.733Z,12.10
2022-12-01T00:30:51.019Z,13.90
2022-12-01T00:35:04.555Z,12.60
2022-12-01T00:39:17.582Z,11.43
2022-12-01T00:43:29.889Z,13.55
2022-12-01T00:47:42.160Z,11.20
2022-12-01T00:51:54.565Z,12.98
2022-12-01T00:56:07.694Z,11.95
2022-12-01T01:00:20.183Z,12.18
2022-12-01T01:04:34.480Z,12.18
2022-12-01T01:08:46.957Z,14.80
2022-12-01T01:12:59.230Z,13.20
2022-12-01T01:17:11.498Z,11.50
2022-12-01T01:21:23.781Z,12.68
2022-12-01T01:25:36.111Z,11.77
2022-12-01T01:29:48.571Z,11.52
2022-12-01T01:34:01.547Z,11.45
2022-12-01T01:38:13.927Z,11.98
2022-12-01T01:42:26.225Z,10.85
2022-12-01T01:46:38.556Z,12.20
2022-12-01T01:50:50.861Z,12.02
2022-12-01T01:55:03.695Z,12.98
2022-12-01T01:59:21.525Z,12.52
2022-12-01T02:03:44.204Z,15.45
2022-12-01T02:07:59.288Z,13.13
2022-12-01T02:12:28.810Z,17.70
2022-12-01T02:17:10.354Z,13.18
2022-12-01T02:21:32.267Z,14.27
2022-12-01T02:26:12.544Z,14.27
2022-12-01T02:30:41.764Z,12.20
2022-12-01T02:35:09.304Z,10.55
2022-12-01T02:39:39.847Z,13.45
2022-12-01T02:44:14.807Z,12.93
2022-12-01T02:48:34.536Z,13.63
2022-12-01T02:52:46.932Z,14.35
2022-12-01T02:57:13.376Z,12.27
2022-12-01T03:01:28.475Z,12.68
2022-12-01T03:05:43.478Z,12.65
2022-12-01T03:10:04.886Z,13.10
2022-12-01T03:14:42.275Z,12.45
2022-12-01T03:19:04.354Z,12.95
2022-12-01T03:23:22.639Z,12.48
2022-12-01T03:27:38.586Z,11.80
2022-12-01T03:31:57.661Z,12.65
2022-12-01T03:36:15.978Z,12.40
2022-12-01T03:40:31.464Z,11.90
2022-12-01T03:44:51.798Z,12.50
2022-12-01T03:49:06.447Z,12.43
2022-12-01T03:53:25.120Z,13.32
2022-12-01T03:57:45.136Z,12.35
2022-12-01T04:01:58.938Z,13.07
2022-12-01T04:06:11.282Z,13.20
2022-12-01T04:10:23.583Z,12.32
2022-12-01T04:14:35.947Z,12.95
2022-12-01T04:18:48.329Z,12.43
2022-12-01T04:23:00.620Z,11.35
2022-12-01T04:27:13.423Z,13.32
2022-12-01T04:31:25.801Z,12.77
2022-12-01T04:35:57.157Z,11.68
2022-12-01T04:40:09.922Z,11.95
2022-12-01T04:44:34.279Z,12.02
2022-12-01T04:48:47.186Z,10.90
2022-12-01T04:52:59.429Z,11.73
2022-12-01T04:57:21.820Z,11.30
2022-12-01T05:01:34.765Z,11.93
2022-12-01T05:05:47.069Z,11.80
2022-12-01T05:09:59.360Z,12.18
2022-12-01T05:14:11.731Z,13.00
2022-12-01T05:18:24.036Z,12.82
2022-12-01T05:23:03.809Z,13.07
2022-12-01T05:27:08.596Z,13.40
2022-12-01T05:31:20.907Z,12.30
2022-12-01T05:35:36.282Z,13.43
2022-12-01T05:39:48.873Z,13.00
2022-12-01T05:44:01.272Z,12.52
2022-12-01T05:48:23.434Z,13.13
2022-12-01T05:52:36.529Z,12.82
2022-12-01T05:56:48.843Z,12.35
2022-12-01T06:01:01.258Z,13.40
2022-12-01T06:05:13.958Z,11.80
2022-12-01T06:09:26.227Z,13.00
2022-12-01T06:13:38.701Z,12.48
2022-12-01T06:17:50.994Z,11.35
2022-12-01T06:22:03.440Z,10.38
2022-12-01T06:26:15.774Z,10.45
2022-12-01T06:30:28.531Z,9.55
2022-12-01T06:34:40.857Z,11.68
2022-12-01T06:38:53.237Z,10.90
2022-12-01T06:43:05.856Z,12.43
2022-12-01T06:47:18.146Z,11.32
2022-12-01T06:51:31.258Z,10.63
2022-12-01T06:55:43.917Z,10.63
2022-12-01T06:59:56.644Z,11.27
2022-12-01T07:04:09.513Z,10.65
2022-12-01T07:08:21.769Z,11.57
2022-12-01T07:12:34.092Z,11.07
2022-12-01T07:16:46.432Z,9.95
2022-12-01T07:21:03.309Z,11.43
2022-12-01T07:25:15.753Z,12.73
2022-12-01T07:29:32.155Z,10.02
2022-12-01T07:33:44.848Z,12.13
2022-12-01T07:37:59.949Z,10.75
2022-12-01T07:42:12.265Z,11.63
2022-12-01T07:46:27.477Z,11.65
2022-12-01T07:50:39.847Z,11.55
2022-12-01T07:54:52.204Z,11.05
2022-12-01T07:59:04.508Z,11.15
2022-12-01T08:03:16.879Z,10.88
2022-12-01T08:07:30.091Z,10.65
2022-12-01T08:11:42.486Z,10.27
2022-12-01T08:15:55.065Z,10.13
2022-12-01T08:20:08.858Z,10.70
2022-12-01T08:24:21.148Z,11.50
2022-12-01T08:28:36.202Z,10.70
2022-12-01T08:32:48.606Z,11.07
2022-12-01T08:37:00.869Z,12.05
2022-12-01T08:41:23.233Z,12.10
2022-12-01T08:45:35.535Z,10.70
2022-12-01T08:49:48.294Z,10.95
2022-12-01T08:54:02.178Z,12.02
2022-12-01T08:58:14.444Z,10.50
2022-12-01T09:02:26.857Z,10.30
2022-12-01T09:06:42.368Z,11.55
2022-12-01T09:10:54.661Z,10.93
2022-12-01T09:15:07.255Z,10.40
2022-12-01T09:19:24.507Z,11.45
2022-12-01T09:23:37.509Z,11.00
2022-12-01T09:27:49.773Z,11.93
2022-12-01T09:32:02.463Z,10.77
2022-12-01T09:36:18.739Z,10.68
2022-12-01T09:40:35.744Z,12.65
2022-12-01T09:44:53.917Z,10.65
2022-12-01T09:49:09.472Z,10.95
2022-12-01T09:53:26.051Z,11.25
2022-12-01T09:57:41.112Z,10.60
2022-12-01T10:02:00.976Z,13.43
2022-12-01T10:06:29.150Z,11.05
2022-12-01T10:10:46.037Z,11.20
2022-12-01T10:15:33.710Z,10.55
2022-12-01T10:19:57.866Z,11.30
2022-12-01T10:24:34.005Z,11.10
2022-12-01T10:28:49.250Z,10.35
2022-12-01T10:33:22.429Z,11.35
2022-12-01T10:37:34.762Z,10.50
2022-12-01T10:41:49.711Z,10.90
2022-12-01T10:46:23.974Z,9.40
2022-12-01T10:50:37.232Z,9.07
2022-12-01T10:54:49.495Z,9.93
2022-12-01T10:59:18.371Z,9.32
2022-12-01T11:03:38.117Z,9.82
2022-12-01T11:07:51.263Z,9.30
2022-12-01T11:12:05.390Z,9.73
2022-12-01T11:16:44.118Z,11.13
2022-12-01T11:21:15.741Z,9.88
2022-12-01T11:25:28.026Z,9.93
2022-12-01T11:29:40.935Z,10.50
2022-12-01T11:33:55.612Z,8.68
2022-12-01T11:42:49.117Z,9.63
2022-12-01T11:47:24.411Z,9.70
2022-12-01T11:51:38.431Z,9.32
2022-12-01T11:55:50.812Z,9.45
2022-12-01T12:00:14.367Z,11.00
2022-12-01T12:04:35.764Z,9.63
2022-12-01T12:09:20.199Z,9.35
2022-12-01T12:13:53.841Z,9.32
2022-12-01T12:18:22.071Z,9.27
2022-12-01T12:23:01.489Z,9.48
2022-12-01T12:27:16.607Z,10.00
2022-12-01T12:31:46.785Z,10.02
2022-12-01T12:36:17.175Z,8.95
2022-12-01T12:40:41.821Z,9.43
2022-12-01T12:45:30.698Z,10.00
2022-12-01T12:49:54.983Z,10.93
2022-12-01T12:54:22.454Z,10.07
2022-12-01T12:58:43.964Z,10.00
2022-12-01T13:03:22.227Z,10.30
2022-12-01T13:07:53.359Z,10.20
2022-12-01T13:12:10.722Z,10.05
2022-12-01T13:16:51.249Z,8.95
2022-12-01T13:21:05.383Z,8.75
2022-12-01T13:25:35.188Z,9.60
2022-12-01T13:29:50.588Z,9.65
2022-12-01T13:34:06.522Z,10.50
2022-12-01T13:38:31.080Z,8.98
2022-12-01T13:42:44.063Z,9.13
2022-12-01T13:47:05.405Z,8.98
2022-12-01T13:51:18.180Z,10.40
2022-12-01T13:55:30.662Z,10.07
2022-12-01T14:00:01.329Z,10.65
2022-12-01T14:04:16.336Z,7.80
2022-12-01T14:08:35.241Z,8.35
2022-12-01T14:12:47.841Z,8.38
2022-12-01T14:17:03.314Z,8.63
2022-12-01T14:21:16.085Z,8.20
2022-12-01T14:25:31.498Z,9.38
2022-12-01T14:29:44.012Z,8.07
2022-12-01T14:34:11.215Z,8.20
2022-12-01T14:38:28.759Z,9.00
2022-12-01T14:43:03.061Z,9.18
2022-12-01T14:47:23.053Z,9.15
2022-12-01T14:51:36.924Z,8.50
2022-12-01T14:55:57.908Z,8.95
2022-12-01T15:00:25.625Z,9.50
2022-12-01T15:05:07.915Z,9.32
2022-12-01T15:09:37.519Z,9.13
2022-12-01T15:13:52.507Z,7.82
2022-12-01T15:18:22.383Z,9.65
2022-12-01T15:22:34.826Z,9.35
2022-12-01T15:26:49.417Z,9.38
2022-12-01T15:31:06.234Z,9.23
2022-12-01T15:35:23.046Z,9.18
2022-12-01T15:39:38.225Z,9.20
2022-12-01T15:43:59.347Z,8.23
2022-12-01T15:48:25.486Z,10.25
2022-12-01T15:52:45.419Z,9.63
2022-12-01T16:01:21.943Z,8.65
2022-12-01T16:05:36.553Z,9.55
2022-12-01T16:10:00.199Z,9.98
2022-12-01T16:14:22.832Z,9.30
2022-12-01T16:18:35.292Z,10.15
2022-12-01T16:22:51.922Z,9.95
2022-12-01T16:27:07.558Z,11.93
2022-12-01T16:31:20.586Z,11.13
2022-12-01T16:35:34.828Z,12.38
2022-12-01T16:39:47.125Z,10.95
2022-12-01T16:44:20.668Z,9.98
2022-12-01T16:48:41.759Z,9.35
2022-12-01T16:52:54.068Z,9.85
2022-12-01T16:57:06.688Z,9.82
2022-12-01T17:01:19.286Z,9.85
2022-12-01T17:05:31.791Z,9.23
2022-12-01T17:09:44.106Z,8.82
2022-12-01T17:13:56.426Z,9.32
2022-12-01T17:18:08.735Z,9.27
2022-12-01T17:22:21.192Z,9.65
2022-12-01T17:26:34.687Z,9.23
2022-12-01T17:30:47.407Z,8.63
2022-12-01T17:34:59.871Z,9.90
2022-12-01T17:39:12.172Z,10.02
2022-12-01T17:43:24.446Z,10.80
2022-12-01T17:47:36.761Z,10.73
2022-12-01T17:51:49.170Z,9.65
2022-12-01T17:56:01.603Z,8.70
2022-12-01T18:00:14.652Z,7.93
2022-12-01T18:04:26.991Z,9.38
2022-12-01T18:08:40.569Z,8.65
2022-12-01T18:12:56.625Z,10.45
2022-12-01T18:17:08.947Z,9.68
2022-12-01T18:21:23.634Z,9.75
2022-12-01T18:25:37.566Z,9.57
2022-12-01T18:29:59.942Z,9.48
2022-12-01T18:34:12.834Z,10.48
2022-12-01T18:38:25.766Z,9.90
2022-12-01T18:42:39.825Z,10.23
2022-12-01T18:46:52.266Z,11.10
2022-12-01T18:51:06.364Z,9.60
2022-12-01T18:55:18.651Z,11.27
2022-12-01T18:59:31.016Z,11.52
2022-12-01T19:03:43.275Z,11.05
2022-12-01T19:07:55.611Z,11.52
2022-12-01T19:12:08.217Z,12.02
2022-12-01T19:16:20.962Z,12.93
2022-12-01T19:20:38.220Z,12.52
2022-12-01T19:24:51.561Z,12.93
2022-12-01T19:29:04.709Z,12.63
2022-12-01T19:33:17.068Z,13.57
2022-12-01T19:37:29.352Z,12.57
2022-12-01T19:41:41.839Z,14.02
2022-12-01T19:45:54.173Z,13.95
2022-12-01T19:50:07.098Z,11.90
2022-12-01T19:54:20.613Z,13.18
2022-12-01T19:58:34.231Z,10.38
2022-12-01T20:02:46.566Z,11.30
2022-12-01T20:06:59.148Z,12.00
2022-12-01T20:11:13.634Z,13.05
2022-12-01T20:15:25.939Z,12.77
2022-12-01T20:19:38.905Z,13.65
2022-12-01T20:23:55.584Z,13.85
2022-12-01T20:28:07.856Z,13.07
2022-12-01T20:32:23.515Z,13.13
2022-12-01T20:36:36.986Z,12.75
2022-12-01T20:40:59.268Z,12.68
2022-12-01T20:45:11.974Z,12.77
2022-12-01T20:49:24.756Z,14.85
2022-12-01T20:53:37.268Z,13.05
2022-12-01T20:57:49.618Z,13.00
2022-12-01T21:02:02.070Z,13.85
2022-12-01T21:06:16.086Z,13.90
2022-12-01T21:10:29.032Z,13.00
2022-12-01T21:15:02.423Z,13.65
2022-12-01T21:19:21.289Z,13.60
2022-12-01T21:23:43.555Z,13.82
2022-12-01T21:28:00.804Z,14.43
2022-12-01T21:32:44.192Z,14.05
2022-12-01T21:37:15.090Z,12.77
2022-12-01T21:41:31.802Z,15.10
2022-12-01T21:45:44.250Z,14.25
2022-12-01T21:49:58.786Z,14.90
2022-12-01T21:54:20.088Z,15.15
2022-12-01T21:58:37.117Z,14.27
2022-12-01T22:03:10.441Z,13.77
2022-12-01T22:07:22.831Z,14.45
2022-12-01T22:11:35.178Z,14.80
2022-12-01T22:15:47.503Z,13.98
2022-12-01T22:20:03.612Z,13.57
2022-12-01T22:24:40.107Z,14.30
2022-12-01T22:28:56.924Z,13.43
2022-12-01T22:33:20.821Z,14.88
2022-12-01T22:37:46.747Z,14.93
2022-12-01T22:42:02.088Z,14.73
2022-12-01T22:46:38.226Z,14.13
2022-12-01T22:50:52.123Z,14.23
2022-12-01T22:55:15.836Z,15.23
2022-12-01T22:59:34.944Z,13.95
2022-12-01T23:03:47.381Z,14.23
2022-12-01T23:08:13.819Z,12.75
2022-12-01T23:12:33.131Z,13.63
2022-12-01T23:16:45.560Z,13.32
2022-12-01T23:21:00.028Z,15.15
2022-12-01T23:25:15.564Z,14.32
2022-12-01T23:29:27.839Z,12.70
2022-12-01T23:33:40.128Z,12.60
2022-12-01T23:37:54.061Z,13.27
2022-12-01T23:42:06.897Z,13.00
2022-12-01T23:46:23.494Z,14.50
2022-12-01T23:50:35.826Z,15.18
2022-12-01T23:54:49.283Z,15.13
2022-12-01T23:59:13.008Z,15.07
